Time,TemperatureF,DewpointF,PressureIn,WindDirection,WindDirectionDegrees,WindSpeedMPH,WindSpeedGustMPH,Humidity,HourlyPrecipIn,Conditions,Clouds,dailyrainin,SolarRadiationWatts/m^2,SoftwareType,DateUTC
2013-07-25 00:02:00,67.0,67.0,-100.00,NNW,346,2.0,8.0,99,0.00,,,0.39,0.000000,,2013-07-25 05:02:00,
2013-07-25 00:43:00,66.0,66.0,-100.00,North,351,4.0,11.0,99,0.00,,,0.39,0.000000,,2013-07-25 05:43:00,
2013-07-25 00:52:00,66.0,66.0,-100.00,North,351,4.0,11.0,99,0.00,,,0.39,0.000000,,2013-07-25 05:52:00,
2013-07-25 01:02:00,66.0,66.0,-100.00,North,351,4.0,11.0,99,0.00,,,0.39,0.000000,,2013-07-25 06:02:00,
2013-07-25 01:32:00,65.0,65.0,-100.00,North,350,1.0,10.0,100,0.00,,,0.39,0.000000,,2013-07-25 06:32:00,
2013-07-25 01:42:00,65.0,65.0,-100.00,North,350,1.0,10.0,100,0.00,,,0.39,0.000000,,2013-07-25 06:42:00,
2013-07-25 01:52:00,65.0,65.0,-100.00,North,350,1.0,10.0,100,0.00,,,0.39,0.000000,,2013-07-25 06:52:00,
2013-07-25 02:02:00,65.0,65.0,-100.00,North,350,1.0,10.0,100,0.00,,,0.39,0.000000,,2013-07-25 07:02:00,
2013-07-25 02:33:00,65.0,65.0,-100.00,North,2,0.0,4.0,100,0.00,,,0.39,0.000000,,2013-07-25 07:33:00,
2013-07-25 02:43:00,65.0,65.0,-100.00,North,2,0.0,4.0,100,0.00,,,0.39,0.000000,,2013-07-25 07:43:00,
2013-07-25 02:53:00,65.0,65.0,-100.00,North,2,0.0,4.0,100,0.00,,,0.39,0.000000,,2013-07-25 07:53:00,
2013-07-25 03:02:00,65.0,65.0,-100.00,North,2,0.0,4.0,100,0.00,,,0.39,0.000000,,2013-07-25 08:02:00,
2013-07-25 03:32:00,64.0,64.0,-100.00,North,354,0.0,0.0,100,0.00,,,0.39,0.000000,,2013-07-25 08:32:00,
2013-07-25 03:44:00,64.0,64.0,-100.00,North,354,0.0,0.0,100,0.00,,,0.39,0.000000,,2013-07-25 08:44:00,
2013-07-25 03:52:00,64.0,64.0,-100.00,North,354,0.0,0.0,100,0.00,,,0.39,0.000000,,2013-07-25 08:52:00,
2013-07-25 04:02:00,64.0,64.0,-100.00,North,354,0.0,0.0,100,0.00,,,0.39,0.000000,,2013-07-25 09:02:00,
2013-07-25 04:43:00,63.0,63.0,-100.00,North,7,0.0,6.0,100,0.00,,,0.39,0.000000,,2013-07-25 09:43:00,
2013-07-25 04:53:00,63.0,63.0,-100.00,North,7,0.0,6.0,100,0.00,,,0.39,0.000000,,2013-07-25 09:53:00,
2013-07-25 05:02:00,63.0,63.0,-100.00,North,7,0.0,6.0,100,0.00,,,0.39,0.000000,,2013-07-25 10:02:00,
2013-07-25 05:43:00,62.0,62.0,-100.00,North,0,0.0,6.0,100,0.00,,,0.39,0.000000,,2013-07-25 10:43:00,
2013-07-25 05:53:00,62.0,62.0,-100.00,North,0,0.0,6.0,100,0.00,,,0.39,0.000000,,2013-07-25 10:53:00,
2013-07-25 06:02:00,62.0,62.0,-100.00,North,0,0.0,6.0,100,0.00,,,0.39,0.000000,,2013-07-25 11:02:00,
2013-07-25 06:43:00,61.0,61.0,-100.00,NNE,12,0.0,6.0,100,0.00,,,0.39,3.000000,,2013-07-25 11:43:00,
2013-07-25 06:52:00,61.0,61.0,-100.00,NNE,12,0.0,6.0,100,0.00,,,0.39,3.000000,,2013-07-25 11:52:00,
2013-07-25 07:03:00,61.0,61.0,-100.00,NNE,12,0.0,6.0,100,0.00,,,0.39,3.000000,,2013-07-25 12:03:00,
2013-07-25 07:45:00,63.0,62.0,-100.00,North,355,3.0,10.0,97,0.00,,,0.39,93.000000,,2013-07-25 12:45:00,
2013-07-25 07:53:00,63.0,62.0,-100.00,North,355,3.0,10.0,97,0.00,,,0.39,93.000000,,2013-07-25 12:53:00,
2013-07-25 08:02:00,63.0,62.0,-100.00,North,355,3.0,10.0,97,0.00,,,0.39,93.000000,,2013-07-25 13:02:00,
2013-07-25 08:43:00,70.0,64.0,-100.00,North,2,1.0,9.0,82,0.00,,,0.39,281.000000,,2013-07-25 13:43:00,
2013-07-25 08:53:00,70.0,64.0,-100.00,North,2,1.0,9.0,82,0.00,,,0.39,281.000000,,2013-07-25 13:53:00,
2013-07-25 09:02:00,70.0,64.0,-100.00,North,2,1.0,9.0,82,0.00,,,0.39,281.000000,,2013-07-25 14:02:00,
2013-07-25 09:43:00,73.0,63.0,-100.00,NE,56,2.0,11.0,70,0.00,,,0.39,462.000000,,2013-07-25 14:43:00,
2013-07-25 09:53:00,73.0,63.0,-100.00,NE,56,2.0,11.0,70,0.00,,,0.39,462.000000,,2013-07-25 14:53:00,
2013-07-25 10:02:00,73.0,63.0,-100.00,NE,56,2.0,11.0,70,0.00,,,0.39,462.000000,,2013-07-25 15:02:00,
2013-07-25 10:44:00,74.0,64.0,-100.00,SSE,151,2.0,10.0,70,0.00,,,0.39,631.000000,,2013-07-25 15:44:00,
2013-07-25 10:53:00,74.0,64.0,-100.00,SSE,151,2.0,10.0,70,0.00,,,0.39,631.000000,,2013-07-25 15:53:00,
2013-07-25 11:02:00,74.0,64.0,-100.00,SSE,151,2.0,10.0,70,0.00,,,0.39,631.000000,,2013-07-25 16:02:00,
2013-07-25 11:45:00,75.0,65.0,-100.00,ESE,117,4.0,8.0,70,0.00,,,0.39,753.000000,,2013-07-25 16:45:00,
2013-07-25 11:53:00,75.0,65.0,-100.00,ESE,117,4.0,8.0,70,0.00,,,0.39,753.000000,,2013-07-25 16:53:00,
2013-07-25 12:03:00,75.0,65.0,-100.00,ESE,117,4.0,8.0,70,0.00,,,0.39,753.000000,,2013-07-25 17:03:00,
2013-07-25 12:43:00,78.0,67.0,-100.00,SE,133,2.0,7.0,68,0.00,,,0.39,775.000000,,2013-07-25 17:43:00,
2013-07-25 12:53:00,78.0,67.0,-100.00,SE,133,2.0,7.0,68,0.00,,,0.39,775.000000,,2013-07-25 17:53:00,
2013-07-25 13:02:00,78.0,67.0,-100.00,SE,133,2.0,7.0,68,0.00,,,0.39,775.000000,,2013-07-25 18:02:00,
2013-07-25 13:43:00,80.0,67.0,-100.00,NW,314,2.0,7.0,65,0.00,,,0.39,617.000000,,2013-07-25 18:43:00,
2013-07-25 13:52:00,80.0,67.0,-100.00,NW,314,2.0,7.0,65,0.00,,,0.39,617.000000,,2013-07-25 18:52:00,
2013-07-25 14:03:00,80.0,67.0,-100.00,NW,314,2.0,7.0,65,0.00,,,0.39,617.000000,,2013-07-25 19:03:00,
2013-07-25 14:43:00,81.0,67.0,-100.00,NW,320,3.0,9.0,62,0.00,,,0.10,826.000000,,2013-07-25 19:43:00,
2013-07-25 14:53:00,81.0,67.0,-100.00,NW,320,3.0,9.0,62,0.00,,,0.10,826.000000,,2013-07-25 19:53:00,
2013-07-25 15:02:00,81.0,67.0,-100.00,NW,320,3.0,9.0,62,0.00,,,0.10,826.000000,,2013-07-25 20:02:00,
2013-07-25 15:32:00,82.0,64.0,-100.00,NW,324,3.0,9.0,55,0.00,,,0.00,791.000000,,2013-07-25 20:32:00,
2013-07-25 15:43:00,82.0,64.0,-100.00,NW,324,3.0,9.0,55,0.00,,,0.00,791.000000,,2013-07-25 20:43:00,
2013-07-25 15:54:00,82.0,64.0,-100.00,NW,324,3.0,9.0,55,0.00,,,0.00,791.000000,,2013-07-25 20:54:00,
2013-07-25 16:03:00,82.0,64.0,-100.00,NW,324,3.0,9.0,55,0.00,,,0.00,791.000000,,2013-07-25 21:03:00,
2013-07-25 16:44:00,83.0,66.0,-100.00,NNW,333,3.0,9.0,56,0.00,,,-99.99,648.000000,,2013-07-25 21:44:00,
2013-07-25 16:52:00,83.0,66.0,-100.00,NNW,333,3.0,9.0,56,0.00,,,-99.99,648.000000,,2013-07-25 21:52:00,
2013-07-25 17:02:00,83.0,66.0,-100.00,NNW,333,3.0,9.0,56,0.00,,,-99.99,648.000000,,2013-07-25 22:02:00,
2013-07-25 17:33:00,81.0,68.0,-100.00,NNW,332,3.0,11.0,65,0.00,,,0.00,469.000000,,2013-07-25 22:33:00,
2013-07-25 17:43:00,81.0,68.0,-100.00,NNW,332,3.0,11.0,65,0.00,,,0.00,469.000000,,2013-07-25 22:43:00,
2013-07-25 17:53:00,81.0,68.0,-100.00,NNW,332,3.0,11.0,65,0.00,,,0.00,469.000000,,2013-07-25 22:53:00,
2013-07-25 18:02:00,81.0,68.0,-100.00,NNW,332,3.0,11.0,65,0.00,,,0.00,469.000000,,2013-07-25 23:02:00,
2013-07-25 18:32:00,77.0,67.0,-100.00,NNW,339,3.0,11.0,71,0.00,,,-99.99,203.000000,,2013-07-25 23:32:00,
2013-07-25 18:43:00,77.0,67.0,-100.00,NNW,339,3.0,11.0,71,0.00,,,-99.99,203.000000,,2013-07-25 23:43:00,
2013-07-25 18:52:00,77.0,67.0,-100.00,NNW,339,3.0,11.0,71,0.00,,,-99.99,203.000000,,2013-07-25 23:52:00,
2013-07-25 19:02:00,77.0,67.0,-100.00,NNW,339,3.0,11.0,71,0.00,,,-99.99,203.000000,,2013-07-26 00:02:00,
2013-07-25 19:33:00,72.0,66.0,-100.00,NNW,341,4.0,12.0,81,0.00,,,0.00,63.000000,,2013-07-26 00:33:00,
2013-07-25 19:43:00,72.0,66.0,-100.00,NNW,341,4.0,12.0,81,0.00,,,0.00,63.000000,,2013-07-26 00:43:00,
2013-07-25 19:52:00,72.0,66.0,-100.00,NNW,341,4.0,12.0,81,0.00,,,0.00,63.000000,,2013-07-26 00:52:00,
2013-07-25 20:02:00,72.0,66.0,-100.00,NNW,341,4.0,12.0,81,0.00,,,0.00,63.000000,,2013-07-26 01:02:00,
2013-07-25 20:43:00,69.0,65.0,-100.00,NNW,344,3.0,10.0,86,0.00,,,0.00,11.000000,,2013-07-26 01:43:00,
2013-07-25 20:52:00,69.0,65.0,-100.00,NNW,344,3.0,10.0,86,0.00,,,0.00,11.000000,,2013-07-26 01:52:00,
2013-07-25 21:02:00,69.0,65.0,-100.00,NNW,344,3.0,10.0,86,0.00,,,0.00,11.000000,,2013-07-26 02:02:00,
2013-07-25 22:44:00,67.0,63.0,-100.00,North,3,4.0,12.0,87,-99.99,,,0.00,0.000000,,2013-07-26 03:44:00,
2013-07-25 22:53:00,67.0,63.0,-100.00,North,3,4.0,12.0,87,-99.99,,,0.00,0.000000,,2013-07-26 03:53:00,
2013-07-25 23:02:00,67.0,63.0,-100.00,North,3,4.0,12.0,87,-99.99,,,0.00,0.000000,,2013-07-26 04:02:00,
2013-07-25 23:32:00,66.0,61.0,-100.00,NNE,13,0.0,11.0,84,0.00,,,0.00,0.000000,,2013-07-26 04:32:00,
2013-07-25 23:43:00,66.0,61.0,-100.00,NNE,13,0.0,11.0,84,0.00,,,0.00,0.000000,,2013-07-26 04:43:00,
2013-07-25 23:53:00,66.0,61.0,-100.00,NNE,13,0.0,11.0,84,0.00,,,0.00,0.000000,,2013-07-26 04:53:00,